sensor_id;sensor_type;location;lat;lon;timestamp;temperature;humidity
45868;DHT22;31582;45.490;7.860;2022-12-29T00:00:10;5.20;66.80
45868;DHT22;31582;45.490;7.860;2022-12-29T00:02:37;5.10;67.40
45868;DHT22;31582;45.490;7.860;2022-12-29T00:05:04;5.10;67.70
45868;DHT22;31582;45.490;7.860;2022-12-29T00:07:32;5.10;67.80
45868;DHT22;31582;45.490;7.860;2022-12-29T00:09:58;5.00;67.80
45868;DHT22;31582;45.490;7.860;2022-12-29T00:12:28;5.00;68.10
45868;DHT22;31582;45.490;7.860;2022-12-29T00:15:14;5.10;68.10
45868;DHT22;31582;45.490;7.860;2022-12-29T00:18:00;5.00;67.60
45868;DHT22;31582;45.490;7.860;2022-12-29T00:20:27;5.10;67.60
45868;DHT22;31582;45.490;7.860;2022-12-29T00:23:13;5.00;67.60
45868;DHT22;31582;45.490;7.860;2022-12-29T00:26:02;5.00;67.50
45868;DHT22;31582;45.490;7.860;2022-12-29T00:28:47;5.00;67.70
45868;DHT22;31582;45.490;7.860;2022-12-29T00:31:37;5.00;68.10
45868;DHT22;31582;45.490;7.860;2022-12-29T00:34:22;4.90;68.50
45868;DHT22;31582;45.490;7.860;2022-12-29T00:37:08;4.90;68.70
45868;DHT22;31582;45.490;7.860;2022-12-29T00:39:35;4.90;68.70
45868;DHT22;31582;45.490;7.860;2022-12-29T00:42:20;4.90;68.70
45868;DHT22;31582;45.490;7.860;2022-12-29T00:45:06;4.90;68.90
45868;DHT22;31582;45.490;7.860;2022-12-29T00:47:33;4.90;68.80
45868;DHT22;31582;45.490;7.860;2022-12-29T00:50:00;4.90;68.20
45868;DHT22;31582;45.490;7.860;2022-12-29T00:52:27;5.00;68.00
45868;DHT22;31582;45.490;7.860;2022-12-29T00:54:54;5.10;67.50
45868;DHT22;31582;45.490;7.860;2022-12-29T00:57:21;5.10;66.90
45868;DHT22;31582;45.490;7.860;2022-12-29T00:59:47;5.10;66.60
45868;DHT22;31582;45.490;7.860;2022-12-29T01:02:14;5.30;66.00
45868;DHT22;31582;45.490;7.860;2022-12-29T01:04:42;5.30;65.70
45868;DHT22;31582;45.490;7.860;2022-12-29T01:07:09;5.30;65.70
45868;DHT22;31582;45.490;7.860;2022-12-29T01:09:36;5.40;65.40
45868;DHT22;31582;45.490;7.860;2022-12-29T01:12:22;5.40;65.00
45868;DHT22;31582;45.490;7.860;2022-12-29T01:15:08;5.40;65.00
45868;DHT22;31582;45.490;7.860;2022-12-29T01:17:36;5.40;64.90
45868;DHT22;31582;45.490;7.860;2022-12-29T01:20:03;5.40;64.40
45868;DHT22;31582;45.490;7.860;2022-12-29T01:22:30;5.50;64.30
45868;DHT22;31582;45.490;7.860;2022-12-29T01:24:57;5.50;64.00
45868;DHT22;31582;45.490;7.860;2022-12-29T01:27:24;5.60;63.50
45868;DHT22;31582;45.490;7.860;2022-12-29T01:29:51;5.60;63.30
45868;DHT22;31582;45.490;7.860;2022-12-29T01:32:18;5.60;63.60
45868;DHT22;31582;45.490;7.860;2022-12-29T01:34:45;5.60;63.10
45868;DHT22;31582;45.490;7.860;2022-12-29T01:37:11;5.60;63.40
45868;DHT22;31582;45.490;7.860;2022-12-29T01:39:39;5.60;63.40
45868;DHT22;31582;45.490;7.860;2022-12-29T01:42:16;5.50;63.80
45868;DHT22;31582;45.490;7.860;2022-12-29T01:44:52;5.50;63.60
45868;DHT22;31582;45.490;7.860;2022-12-29T01:49:59;5.50;63.60
45868;DHT22;31582;45.490;7.860;2022-12-29T01:52:30;5.50;64.00
45868;DHT22;31582;45.490;7.860;2022-12-29T01:54:59;5.50;63.40
45868;DHT22;31582;45.490;7.860;2022-12-29T01:57:33;5.60;63.00
45868;DHT22;31582;45.490;7.860;2022-12-29T02:00:10;5.60;62.80
45868;DHT22;31582;45.490;7.860;2022-12-29T02:02:38;5.70;62.40
45868;DHT22;31582;45.490;7.860;2022-12-29T03:54:18;4.90;65.90
45868;DHT22;31582;45.490;7.860;2022-12-29T03:56:45;4.90;66.40
45868;DHT22;31582;45.490;7.860;2022-12-29T03:59:12;4.90;66.40
45868;DHT22;31582;45.490;7.860;2022-12-29T04:01:39;4.70;67.10
45868;DHT22;31582;45.490;7.860;2022-12-29T04:04:06;4.70;67.30
45868;DHT22;31582;45.490;7.860;2022-12-29T04:06:34;4.60;68.00
45868;DHT22;31582;45.490;7.860;2022-12-29T04:09:01;4.60;67.80
45868;DHT22;31582;45.490;7.860;2022-12-29T04:11:28;4.60;67.40
45868;DHT22;31582;45.490;7.860;2022-12-29T04:13:58;4.60;67.40
45868;DHT22;31582;45.490;7.860;2022-12-29T04:16:26;4.60;67.40
45868;DHT22;31582;45.490;7.860;2022-12-29T04:18:53;4.60;68.00
45868;DHT22;31582;45.490;7.860;2022-12-29T04:21:20;4.50;68.20
45868;DHT22;31582;45.490;7.860;2022-12-29T04:23:48;4.50;68.60
45868;DHT22;31582;45.490;7.860;2022-12-29T04:26:16;4.40;68.80
45868;DHT22;31582;45.490;7.860;2022-12-29T04:28:43;4.40;68.80
45868;DHT22;31582;45.490;7.860;2022-12-29T04:31:10;4.40;68.70
45868;DHT22;31582;45.490;7.860;2022-12-29T04:33:39;4.40;68.80
45868;DHT22;31582;45.490;7.860;2022-12-29T04:36:06;4.40;68.60
45868;DHT22;31582;45.490;7.860;2022-12-29T04:38:33;4.50;68.50
45868;DHT22;31582;45.490;7.860;2022-12-29T04:41:01;4.50;68.20
45868;DHT22;31582;45.490;7.860;2022-12-29T04:43:28;4.50;68.10
45868;DHT22;31582;45.490;7.860;2022-12-29T04:45:55;4.60;67.40
45868;DHT22;31582;45.490;7.860;2022-12-29T04:48:22;4.60;67.70
45868;DHT22;31582;45.490;7.860;2022-12-29T04:50:51;4.70;67.30
45868;DHT22;31582;45.490;7.860;2022-12-29T04:53:18;4.70;67.20
45868;DHT22;31582;45.490;7.860;2022-12-29T04:55:49;4.70;67.30
45868;DHT22;31582;45.490;7.860;2022-12-29T04:58:17;4.70;67.00
45868;DHT22;31582;45.490;7.860;2022-12-29T05:00:49;4.70;66.80
45868;DHT22;31582;45.490;7.860;2022-12-29T05:03:16;4.70;66.60
45868;DHT22;31582;45.490;7.860;2022-12-29T05:05:44;4.70;67.00
45868;DHT22;31582;45.490;7.860;2022-12-29T05:08:10;4.70;66.80
45868;DHT22;31582;45.490;7.860;2022-12-29T05:10:38;4.60;67.20
45868;DHT22;31582;45.490;7.860;2022-12-29T05:13:04;4.60;67.60
45868;DHT22;31582;45.490;7.860;2022-12-29T05:15:33;4.60;67.60
45868;DHT22;31582;45.490;7.860;2022-12-29T05:18:01;4.60;67.30
45868;DHT22;31582;45.490;7.860;2022-12-29T05:20:28;4.70;67.00
45868;DHT22;31582;45.490;7.860;2022-12-29T05:22:55;4.60;67.50
45868;DHT22;31582;45.490;7.860;2022-12-29T05:25:22;4.50;67.70
45868;DHT22;31582;45.490;7.860;2022-12-29T05:27:49;4.50;67.70
45868;DHT22;31582;45.490;7.860;2022-12-29T05:30:16;4.50;68.00
45868;DHT22;31582;45.490;7.860;2022-12-29T05:32:43;4.50;68.10
45868;DHT22;31582;45.490;7.860;2022-12-29T05:35:10;4.50;68.20
45868;DHT22;31582;45.490;7.860;2022-12-29T05:37:37;4.40;68.40
45868;DHT22;31582;45.490;7.860;2022-12-29T05:40:05;4.40;68.50
45868;DHT22;31582;45.490;7.860;2022-12-29T05:42:33;4.40;68.40
45868;DHT22;31582;45.490;7.860;2022-12-29T05:45:00;4.40;68.70
45868;DHT22;31582;45.490;7.860;2022-12-29T05:47:28;4.40;68.70
45868;DHT22;31582;45.490;7.860;2022-12-29T05:49:56;4.30;68.90
45868;DHT22;31582;45.490;7.860;2022-12-29T05:52:23;4.40;68.60
45868;DHT22;31582;45.490;7.860;2022-12-29T05:54:50;4.40;68.40
45868;DHT22;31582;45.490;7.860;2022-12-29T05:57:17;4.40;68.10
45868;DHT22;31582;45.490;7.860;2022-12-29T05:59:44;4.40;68.90
45868;DHT22;31582;45.490;7.860;2022-12-29T06:02:11;4.30;68.90
45868;DHT22;31582;45.490;7.860;2022-12-29T06:04:38;4.30;69.00
45868;DHT22;31582;45.490;7.860;2022-12-29T06:07:05;4.20;69.30
45868;DHT22;31582;45.490;7.860;2022-12-29T06:09:32;4.20;69.60
45868;DHT22;31582;45.490;7.860;2022-12-29T06:11:59;4.20;69.40
45868;DHT22;31582;45.490;7.860;2022-12-29T06:14:27;4.20;69.20
45868;DHT22;31582;45.490;7.860;2022-12-29T06:16:54;4.20;69.30
45868;DHT22;31582;45.490;7.860;2022-12-29T06:19:22;4.20;69.50
45868;DHT22;31582;45.490;7.860;2022-12-29T06:21:49;4.10;69.80
45868;DHT22;31582;45.490;7.860;2022-12-29T06:24:18;4.10;70.00
45868;DHT22;31582;45.490;7.860;2022-12-29T06:26:45;4.00;70.50
45868;DHT22;31582;45.490;7.860;2022-12-29T06:29:12;4.00;70.50
45868;DHT22;31582;45.490;7.860;2022-12-29T06:31:44;4.00;70.20
45868;DHT22;31582;45.490;7.860;2022-12-29T06:34:12;4.00;70.90
45868;DHT22;31582;45.490;7.860;2022-12-29T06:36:39;3.90;71.20
45868;DHT22;31582;45.490;7.860;2022-12-29T06:39:06;4.00;71.10
45868;DHT22;31582;45.490;7.860;2022-12-29T06:41:33;4.00;70.70
45868;DHT22;31582;45.490;7.860;2022-12-29T06:44:03;4.00;70.70
45868;DHT22;31582;45.490;7.860;2022-12-29T06:46:30;4.10;70.60
45868;DHT22;31582;45.490;7.860;2022-12-29T06:48:57;4.10;70.30
45868;DHT22;31582;45.490;7.860;2022-12-29T06:51:25;4.10;70.00
45868;DHT22;31582;45.490;7.860;2022-12-29T06:53:53;4.20;69.40
45868;DHT22;31582;45.490;7.860;2022-12-29T06:56:20;4.20;69.50
45868;DHT22;31582;45.490;7.860;2022-12-29T06:58:50;4.20;69.40
45868;DHT22;31582;45.490;7.860;2022-12-29T07:01:18;4.20;70.00
45868;DHT22;31582;45.490;7.860;2022-12-29T07:03:45;4.30;69.20
45868;DHT22;31582;45.490;7.860;2022-12-29T07:06:15;4.30;69.30
45868;DHT22;31582;45.490;7.860;2022-12-29T07:08:42;4.30;69.10
45868;DHT22;31582;45.490;7.860;2022-12-29T07:11:09;4.30;69.30
45868;DHT22;31582;45.490;7.860;2022-12-29T07:13:37;4.30;69.20
45868;DHT22;31582;45.490;7.860;2022-12-29T07:16:08;4.30;69.40
45868;DHT22;31582;45.490;7.860;2022-12-29T07:18:38;4.30;69.60
45868;DHT22;31582;45.490;7.860;2022-12-29T07:21:05;4.30;69.30
45868;DHT22;31582;45.490;7.860;2022-12-29T07:23:32;4.40;68.90
45868;DHT22;31582;45.490;7.860;2022-12-29T07:26:07;4.40;68.50
45868;DHT22;31582;45.490;7.860;2022-12-29T07:28:35;4.40;68.60
45868;DHT22;31582;45.490;7.860;2022-12-29T07:31:02;4.50;68.60
45868;DHT22;31582;45.490;7.860;2022-12-29T07:33:29;4.60;68.30
45868;DHT22;31582;45.490;7.860;2022-12-29T07:35:57;4.70;67.80
45868;DHT22;31582;45.490;7.860;2022-12-29T07:38:24;4.80;67.00
45868;DHT22;31582;45.490;7.860;2022-12-29T07:40:55;4.90;66.80
45868;DHT22;31582;45.490;7.860;2022-12-29T07:43:25;4.90;66.90
45868;DHT22;31582;45.490;7.860;2022-12-29T07:45:52;5.00;66.30
45868;DHT22;31582;45.490;7.860;2022-12-29T07:48:19;5.10;66.40
45868;DHT22;31582;45.490;7.860;2022-12-29T07:50:46;5.10;66.00
45868;DHT22;31582;45.490;7.860;2022-12-29T07:53:13;5.10;66.40
45868;DHT22;31582;45.490;7.860;2022-12-29T07:55:40;5.20;66.20
45868;DHT22;31582;45.490;7.860;2022-12-29T07:58:07;5.20;67.30
45868;DHT22;31582;45.490;7.860;2022-12-29T08:00:35;5.30;65.60
45868;DHT22;31582;45.490;7.860;2022-12-29T08:03:02;5.30;65.80
45868;DHT22;31582;45.490;7.860;2022-12-29T08:05:31;5.40;65.40
45868;DHT22;31582;45.490;7.860;2022-12-29T08:08:00;5.50;65.60
45868;DHT22;31582;45.490;7.860;2022-12-29T08:10:28;5.50;65.60
45868;DHT22;31582;45.490;7.860;2022-12-29T08:12:57;5.60;65.10
45868;DHT22;31582;45.490;7.860;2022-12-29T08:15:26;5.70;64.70
45868;DHT22;31582;45.490;7.860;2022-12-29T08:18:00;5.80;64.80
45868;DHT22;31582;45.490;7.860;2022-12-29T08:20:27;5.80;64.80
45868;DHT22;31582;45.490;7.860;2022-12-29T08:22:54;6.00;64.20
45868;DHT22;31582;45.490;7.860;2022-12-29T08:25:23;6.00;63.80
45868;DHT22;31582;45.490;7.860;2022-12-29T08:27:53;6.20;63.40
45868;DHT22;31582;45.490;7.860;2022-12-29T08:30:22;6.30;62.80
45868;DHT22;31582;45.490;7.860;2022-12-29T08:32:50;6.50;62.20
45868;DHT22;31582;45.490;7.860;2022-12-29T08:35:17;6.70;61.40
45868;DHT22;31582;45.490;7.860;2022-12-29T08:37:44;6.90;60.60
45868;DHT22;31582;45.490;7.860;2022-12-29T08:40:12;7.10;60.10
45868;DHT22;31582;45.490;7.860;2022-12-29T08:42:40;7.30;59.00
45868;DHT22;31582;45.490;7.860;2022-12-29T08:45:07;7.40;58.50
45868;DHT22;31582;45.490;7.860;2022-12-29T08:47:35;7.40;58.40
45868;DHT22;31582;45.490;7.860;2022-12-29T08:50:03;7.50;58.60
45868;DHT22;31582;45.490;7.860;2022-12-29T08:52:31;7.50;57.50
45868;DHT22;31582;45.490;7.860;2022-12-29T08:54:57;7.50;56.90
45868;DHT22;31582;45.490;7.860;2022-12-29T08:57:24;7.50;56.50
45868;DHT22;31582;45.490;7.860;2022-12-29T08:59:51;7.30;57.50
45868;DHT22;31582;45.490;7.860;2022-12-29T09:02:18;7.30;57.90
45868;DHT22;31582;45.490;7.860;2022-12-29T09:04:50;7.10;58.50
45868;DHT22;31582;45.490;7.860;2022-12-29T09:07:18;7.00;58.30
45868;DHT22;31582;45.490;7.860;2022-12-29T09:09:44;7.00;58.70
45868;DHT22;31582;45.490;7.860;2022-12-29T09:12:11;7.00;58.40
45868;DHT22;31582;45.490;7.860;2022-12-29T09:14:38;7.00;58.10
45868;DHT22;31582;45.490;7.860;2022-12-29T09:17:05;7.00;58.30
45868;DHT22;31582;45.490;7.860;2022-12-29T09:19:51;7.00;58.80
45868;DHT22;31582;45.490;7.860;2022-12-29T09:22:18;7.00;58.60
45868;DHT22;31582;45.490;7.860;2022-12-29T09:24:45;7.00;58.70
45868;DHT22;31582;45.490;7.860;2022-12-29T09:27:12;7.00;58.80
45868;DHT22;31582;45.490;7.860;2022-12-29T09:29:39;7.00;59.60
45868;DHT22;31582;45.490;7.860;2022-12-29T09:32:06;6.90;59.40
45868;DHT22;31582;45.490;7.860;2022-12-29T09:34:41;6.90;58.90
45868;DHT22;31582;45.490;7.860;2022-12-29T09:37:07;7.00;59.00
45868;DHT22;31582;45.490;7.860;2022-12-29T09:39:34;6.90;58.70
45868;DHT22;31582;45.490;7.860;2022-12-29T09:42:05;7.00;58.70
45868;DHT22;31582;45.490;7.860;2022-12-29T09:44:40;7.00;59.20
45868;DHT22;31582;45.490;7.860;2022-12-29T09:47:14;6.90;59.80
45868;DHT22;31582;45.490;7.860;2022-12-29T09:55:42;6.90;60.00
45868;DHT22;31582;45.490;7.860;2022-12-29T10:03:50;6.90;60.20
45868;DHT22;31582;45.490;7.860;2022-12-29T10:09:41;6.90;59.40
45868;DHT22;31582;45.490;7.860;2022-12-29T10:12:49;6.90;59.00
45868;DHT22;31582;45.490;7.860;2022-12-29T10:15:49;6.90;59.00
45868;DHT22;31582;45.490;7.860;2022-12-29T10:23:55;6.90;59.10
45868;DHT22;31582;45.490;7.860;2022-12-29T10:26:35;6.80;59.70
45868;DHT22;31582;45.490;7.860;2022-12-29T10:29:04;6.80;59.40
45868;DHT22;31582;45.490;7.860;2022-12-29T10:31:59;6.80;59.30
45868;DHT22;31582;45.490;7.860;2022-12-29T10:34:42;6.80;59.60
45868;DHT22;31582;45.490;7.860;2022-12-29T10:40:02;6.80;59.70
45868;DHT22;31582;45.490;7.860;2022-12-29T10:42:42;6.80;59.40
45868;DHT22;31582;45.490;7.860;2022-12-29T10:45:13;6.80;59.30
45868;DHT22;31582;45.490;7.860;2022-12-29T10:47:57;6.80;59.50
45868;DHT22;31582;45.490;7.860;2022-12-29T10:50:26;6.90;59.50
45868;DHT22;31582;45.490;7.860;2022-12-29T10:53:00;6.90;59.10
45868;DHT22;31582;45.490;7.860;2022-12-29T10:55:35;7.00;59.60
45868;DHT22;31582;45.490;7.860;2022-12-29T10:58:06;7.10;59.40
45868;DHT22;31582;45.490;7.860;2022-12-29T11:00:33;7.30;58.50
45868;DHT22;31582;45.490;7.860;2022-12-29T11:06:12;7.90;57.40
45868;DHT22;31582;45.490;7.860;2022-12-29T11:08:48;8.20;56.20
45868;DHT22;31582;45.490;7.860;2022-12-29T11:11:43;8.50;56.30
45868;DHT22;31582;45.490;7.860;2022-12-29T11:14:21;8.70;55.40
45868;DHT22;31582;45.490;7.860;2022-12-29T11:17:00;8.90;55.30
45868;DHT22;31582;45.490;7.860;2022-12-29T11:19:30;9.20;54.30
45868;DHT22;31582;45.490;7.860;2022-12-29T11:22:25;9.40;54.40
45868;DHT22;31582;45.490;7.860;2022-12-29T11:24:53;9.40;53.80
45868;DHT22;31582;45.490;7.860;2022-12-29T11:27:25;9.70;54.00
45868;DHT22;31582;45.490;7.860;2022-12-29T11:29:54;9.80;52.50
45868;DHT22;31582;45.490;7.860;2022-12-29T11:32:28;10.00;51.70
45868;DHT22;31582;45.490;7.860;2022-12-29T11:34:58;10.10;51.80
45868;DHT22;31582;45.490;7.860;2022-12-29T11:37:37;10.30;51.90
45868;DHT22;31582;45.490;7.860;2022-12-29T11:40:19;10.50;52.50
45868;DHT22;31582;45.490;7.860;2022-12-29T11:43:00;10.70;51.80
45868;DHT22;31582;45.490;7.860;2022-12-29T11:45:33;10.90;52.10
45868;DHT22;31582;45.490;7.860;2022-12-29T11:48:07;11.00;52.70
45868;DHT22;31582;45.490;7.860;2022-12-29T11:50:39;11.10;52.70
45868;DHT22;31582;45.490;7.860;2022-12-29T11:58:33;11.50;52.40
45868;DHT22;31582;45.490;7.860;2022-12-29T12:01:10;11.60;52.40
45868;DHT22;31582;45.490;7.860;2022-12-29T12:03:46;11.70;51.20
45868;DHT22;31582;45.490;7.860;2022-12-29T12:06:17;11.70;51.90
45868;DHT22;31582;45.490;7.860;2022-12-29T12:08:53;11.80;52.20
45868;DHT22;31582;45.490;7.860;2022-12-29T12:11:31;11.80;51.60
45868;DHT22;31582;45.490;7.860;2022-12-29T12:14:18;12.00;52.20
45868;DHT22;31582;45.490;7.860;2022-12-29T12:16:52;12.00;50.90
45868;DHT22;31582;45.490;7.860;2022-12-29T12:19:46;12.10;51.10
45868;DHT22;31582;45.490;7.860;2022-12-29T12:24:59;12.30;50.70
45868;DHT22;31582;45.490;7.860;2022-12-29T12:27:33;12.30;48.50
45868;DHT22;31582;45.490;7.860;2022-12-29T12:30:18;12.40;48.60
45868;DHT22;31582;45.490;7.860;2022-12-29T12:32:50;12.30;48.60
45868;DHT22;31582;45.490;7.860;2022-12-29T12:35:44;12.30;49.40
45868;DHT22;31582;45.490;7.860;2022-12-29T12:38:34;12.40;48.70
45868;DHT22;31582;45.490;7.860;2022-12-29T12:41:09;12.40;48.00
45868;DHT22;31582;45.490;7.860;2022-12-29T12:44:07;12.80;47.90
45868;DHT22;31582;45.490;7.860;2022-12-29T12:46:48;13.10;47.30
45868;DHT22;31582;45.490;7.860;2022-12-29T12:55:49;12.60;46.30
45868;DHT22;31582;45.490;7.860;2022-12-29T13:01:42;13.40;47.20
45868;DHT22;31582;45.490;7.860;2022-12-29T13:04:39;13.70;46.60
45868;DHT22;31582;45.490;7.860;2022-12-29T13:07:20;13.80;45.80
45868;DHT22;31582;45.490;7.860;2022-12-29T13:10:19;13.70;45.50
45868;DHT22;31582;45.490;7.860;2022-12-29T13:15:47;13.60;45.60
45868;DHT22;31582;45.490;7.860;2022-12-29T13:21:37;13.60;45.10
45868;DHT22;31582;45.490;7.860;2022-12-29T13:27:46;13.50;45.00
45868;DHT22;31582;45.490;7.860;2022-12-29T13:30:04;13.30;44.20
45868;DHT22;31582;45.490;7.860;2022-12-29T13:32:49;13.10;49.30
45868;DHT22;31582;45.490;7.860;2022-12-29T13:35:34;13.00;51.00
45868;DHT22;31582;45.490;7.860;2022-12-29T13:40:41;11.60;53.90
45868;DHT22;31582;45.490;7.860;2022-12-29T13:43:11;11.50;55.30
45868;DHT22;31582;45.490;7.860;2022-12-29T13:45:40;11.30;55.00
45868;DHT22;31582;45.490;7.860;2022-12-29T13:48:17;11.20;55.30
45868;DHT22;31582;45.490;7.860;2022-12-29T13:50:55;11.60;56.10
45868;DHT22;31582;45.490;7.860;2022-12-29T13:56:40;12.00;54.10
45868;DHT22;31582;45.490;7.860;2022-12-29T14:05:01;12.30;53.50
45868;DHT22;31582;45.490;7.860;2022-12-29T14:07:29;12.20;54.50
45868;DHT22;31582;45.490;7.860;2022-12-29T14:10:02;11.90;55.70
45868;DHT22;31582;45.490;7.860;2022-12-29T14:12:43;11.70;56.90
45868;DHT22;31582;45.490;7.860;2022-12-29T14:17:39;11.50;58.60
45868;DHT22;31582;45.490;7.860;2022-12-29T14:20:20;11.20;59.40
45868;DHT22;31582;45.490;7.860;2022-12-29T14:25:56;11.30;60.00
45868;DHT22;31582;45.490;7.860;2022-12-29T14:28:26;11.20;60.40
45868;DHT22;31582;45.490;7.860;2022-12-29T14:30:59;11.30;60.60
45868;DHT22;31582;45.490;7.860;2022-12-29T14:33:29;11.30;60.00
45868;DHT22;31582;45.490;7.860;2022-12-29T14:35:57;11.20;60.00
45868;DHT22;31582;45.490;7.860;2022-12-29T14:38:32;11.10;60.40
45868;DHT22;31582;45.490;7.860;2022-12-29T14:41:23;11.10;60.50
45868;DHT22;31582;45.490;7.860;2022-12-29T14:44:17;11.30;60.10
45868;DHT22;31582;45.490;7.860;2022-12-29T14:46:58;11.30;60.00
45868;DHT22;31582;45.490;7.860;2022-12-29T14:49:28;11.50;60.00
45868;DHT22;31582;45.490;7.860;2022-12-29T14:52:18;11.70;59.70
45868;DHT22;31582;45.490;7.860;2022-12-29T14:57:41;11.50;59.90
45868;DHT22;31582;45.490;7.860;2022-12-29T15:00:22;11.50;60.00
45868;DHT22;31582;45.490;7.860;2022-12-29T15:03:02;11.70;59.60
45868;DHT22;31582;45.490;7.860;2022-12-29T15:05:37;11.80;59.60
45868;DHT22;31582;45.490;7.860;2022-12-29T15:08:07;11.90;58.90
45868;DHT22;31582;45.490;7.860;2022-12-29T15:10:57;12.00;58.20
45868;DHT22;31582;45.490;7.860;2022-12-29T15:13:37;11.90;58.00
45868;DHT22;31582;45.490;7.860;2022-12-29T15:18:50;12.10;57.90
45868;DHT22;31582;45.490;7.860;2022-12-29T15:21:16;12.10;57.90
45868;DHT22;31582;45.490;7.860;2022-12-29T15:23:49;12.00;57.40
45868;DHT22;31582;45.490;7.860;2022-12-29T15:26:16;11.90;57.70
45868;DHT22;31582;45.490;7.860;2022-12-29T15:28:51;11.80;58.30
45868;DHT22;31582;45.490;7.860;2022-12-29T15:31:21;11.60;58.70
45868;DHT22;31582;45.490;7.860;2022-12-29T15:34:09;11.50;59.60
45868;DHT22;31582;45.490;7.860;2022-12-29T15:36:39;11.30;60.10
45868;DHT22;31582;45.490;7.860;2022-12-29T15:39:41;11.20;60.60
45868;DHT22;31582;45.490;7.860;2022-12-29T15:45:13;10.70;61.00
45868;DHT22;31582;45.490;7.860;2022-12-29T15:47:43;10.50;59.30
45868;DHT22;31582;45.490;7.860;2022-12-29T15:50:23;10.10;59.50
45868;DHT22;31582;45.490;7.860;2022-12-29T15:52:52;10.00;60.30
45868;DHT22;31582;45.490;7.860;2022-12-29T15:55:33;9.90;61.10
45868;DHT22;31582;45.490;7.860;2022-12-29T15:58:03;9.80;60.00
45868;DHT22;31582;45.490;7.860;2022-12-29T16:00:33;9.60;60.10
45868;DHT22;31582;45.490;7.860;2022-12-29T16:03:03;9.50;60.40
45868;DHT22;31582;45.490;7.860;2022-12-29T16:05:36;9.40;60.30
45868;DHT22;31582;45.490;7.860;2022-12-29T16:10:47;8.90;60.00
45868;DHT22;31582;45.490;7.860;2022-12-29T16:13:18;8.80;59.40
45868;DHT22;31582;45.490;7.860;2022-12-29T16:15:46;8.70;59.40
45868;DHT22;31582;45.490;7.860;2022-12-29T16:18:24;8.60;59.10
45868;DHT22;31582;45.490;7.860;2022-12-29T16:20:52;8.50;59.40
45868;DHT22;31582;45.490;7.860;2022-12-29T16:23:24;8.40;60.00
45868;DHT22;31582;45.490;7.860;2022-12-29T16:25:54;8.30;60.50
45868;DHT22;31582;45.490;7.860;2022-12-29T16:28:23;8.20;61.00
45868;DHT22;31582;45.490;7.860;2022-12-29T16:31:05;8.10;61.30
45868;DHT22;31582;45.490;7.860;2022-12-29T16:33:45;8.00;61.70
45868;DHT22;31582;45.490;7.860;2022-12-29T16:41:49;7.60;63.30
45868;DHT22;31582;45.490;7.860;2022-12-29T16:44:28;7.50;63.70
45868;DHT22;31582;45.490;7.860;2022-12-29T16:49:40;7.30;64.60
45868;DHT22;31582;45.490;7.860;2022-12-29T16:52:19;7.20;65.00
45868;DHT22;31582;45.490;7.860;2022-12-29T16:54:55;7.10;65.50
45868;DHT22;31582;45.490;7.860;2022-12-29T16:57:28;7.00;65.80
45868;DHT22;31582;45.490;7.860;2022-12-29T16:59:59;7.00;66.10
45868;DHT22;31582;45.490;7.860;2022-12-29T17:02:28;7.00;66.30
45868;DHT22;31582;45.490;7.860;2022-12-29T17:04:56;6.90;66.60
45868;DHT22;31582;45.490;7.860;2022-12-29T17:07:26;6.90;67.10
45868;DHT22;31582;45.490;7.860;2022-12-29T17:09:53;6.80;67.30
45868;DHT22;31582;45.490;7.860;2022-12-29T17:12:29;6.80;68.10
45868;DHT22;31582;45.490;7.860;2022-12-29T17:14:58;6.70;68.80
45868;DHT22;31582;45.490;7.860;2022-12-29T17:17:40;6.60;70.10
45868;DHT22;31582;45.490;7.860;2022-12-29T17:20:26;6.60;69.60
45868;DHT22;31582;45.490;7.860;2022-12-29T17:22:56;6.60;70.20
45868;DHT22;31582;45.490;7.860;2022-12-29T17:25:29;6.50;70.30
45868;DHT22;31582;45.490;7.860;2022-12-29T17:30:40;6.40;70.20
45868;DHT22;31582;45.490;7.860;2022-12-29T17:33:12;6.40;70.20
45868;DHT22;31582;45.490;7.860;2022-12-29T17:35:40;6.40;70.20
45868;DHT22;31582;45.490;7.860;2022-12-29T17:38:26;6.40;70.70
45868;DHT22;31582;45.490;7.860;2022-12-29T17:40:54;6.40;70.80
45868;DHT22;31582;45.490;7.860;2022-12-29T17:43:21;6.40;70.60
45868;DHT22;31582;45.490;7.860;2022-12-29T17:45:55;6.40;70.30
45868;DHT22;31582;45.490;7.860;2022-12-29T17:48:23;6.40;69.50
45868;DHT22;31582;45.490;7.860;2022-12-29T17:50:52;6.40;69.70
45868;DHT22;31582;45.490;7.860;2022-12-29T17:53:25;6.40;70.10
45868;DHT22;31582;45.490;7.860;2022-12-29T17:55:53;6.30;70.10
45868;DHT22;31582;45.490;7.860;2022-12-29T17:58:22;6.20;70.70
45868;DHT22;31582;45.490;7.860;2022-12-29T18:00:56;6.20;71.00
45868;DHT22;31582;45.490;7.860;2022-12-29T18:05:58;6.20;70.80
45868;DHT22;31582;45.490;7.860;2022-12-29T18:08:26;6.20;71.20
45868;DHT22;31582;45.490;7.860;2022-12-29T18:10:56;6.10;71.20
45868;DHT22;31582;45.490;7.860;2022-12-29T18:13:28;6.20;70.90
45868;DHT22;31582;45.490;7.860;2022-12-29T18:16:10;6.20;70.60
45868;DHT22;31582;45.490;7.860;2022-12-29T18:18:39;6.20;70.20
45868;DHT22;31582;45.490;7.860;2022-12-29T18:21:16;6.20;70.00
45868;DHT22;31582;45.490;7.860;2022-12-29T18:23:47;6.20;69.30
45868;DHT22;31582;45.490;7.860;2022-12-29T18:26:20;6.20;69.10
45868;DHT22;31582;45.490;7.860;2022-12-29T18:28:54;6.20;69.30
45868;DHT22;31582;45.490;7.860;2022-12-29T18:33:52;6.10;69.70
45868;DHT22;31582;45.490;7.860;2022-12-29T18:36:21;6.10;69.50
45868;DHT22;31582;45.490;7.860;2022-12-29T18:38:48;6.10;69.90
45868;DHT22;31582;45.490;7.860;2022-12-29T18:41:25;6.10;70.10
45868;DHT22;31582;45.490;7.860;2022-12-29T18:43:55;5.90;70.90
45868;DHT22;31582;45.490;7.860;2022-12-29T18:46:21;5.90;71.00
45868;DHT22;31582;45.490;7.860;2022-12-29T18:48:50;5.90;70.80
45868;DHT22;31582;45.490;7.860;2022-12-29T18:51:24;5.90;71.20
45868;DHT22;31582;45.490;7.860;2022-12-29T18:53:52;5.90;70.90
45868;DHT22;31582;45.490;7.860;2022-12-29T18:56:23;5.80;71.00
45868;DHT22;31582;45.490;7.860;2022-12-29T18:58:51;5.80;71.10
45868;DHT22;31582;45.490;7.860;2022-12-29T19:01:24;5.80;71.40
45868;DHT22;31582;45.490;7.860;2022-12-29T19:03:54;5.80;71.70
45868;DHT22;31582;45.490;7.860;2022-12-29T19:06:22;5.80;71.80
45868;DHT22;31582;45.490;7.860;2022-12-29T19:08:49;5.70;72.00
45868;DHT22;31582;45.490;7.860;2022-12-29T19:11:17;5.60;72.70
45868;DHT22;31582;45.490;7.860;2022-12-29T19:13:45;5.60;72.90
45868;DHT22;31582;45.490;7.860;2022-12-29T19:16:19;5.40;74.20
45868;DHT22;31582;45.490;7.860;2022-12-29T19:18:47;5.30;75.30
45868;DHT22;31582;45.490;7.860;2022-12-29T19:21:35;5.30;76.10
45868;DHT22;31582;45.490;7.860;2022-12-29T19:24:02;5.20;76.80
45868;DHT22;31582;45.490;7.860;2022-12-29T19:26:32;5.10;77.40
45868;DHT22;31582;45.490;7.860;2022-12-29T19:29:03;5.00;78.20
45868;DHT22;31582;45.490;7.860;2022-12-29T19:31:30;4.90;78.80
45868;DHT22;31582;45.490;7.860;2022-12-29T19:34:01;5.00;79.00
45868;DHT22;31582;45.490;7.860;2022-12-29T19:36:29;5.10;79.00
45868;DHT22;31582;45.490;7.860;2022-12-29T19:38:57;5.20;78.60
45868;DHT22;31582;45.490;7.860;2022-12-29T19:41:24;5.20;78.40